createdAt,value
2017-09-24T00:02:21.010Z,14.60
2017-09-24T00:04:48.041Z,14.60
2017-09-24T00:07:15.066Z,14.50
2017-09-24T00:09:42.853Z,14.40
2017-09-24T00:12:10.737Z,14.60
2017-09-24T00:14:37.061Z,14.50
2017-09-24T00:17:04.086Z,14.40
2017-09-24T00:19:30.439Z,14.40
2017-09-24T00:21:56.745Z,14.10
2017-09-24T00:24:24.565Z,13.90
2017-09-24T00:26:50.881Z,13.90
2017-09-24T00:29:17.196Z,14.00
2017-09-24T00:31:43.545Z,14.00
2017-09-24T00:34:09.870Z,14.00
2017-09-24T00:36:36.177Z,14.00
2017-09-24T00:39:03.238Z,14.20
2017-09-24T00:41:29.548Z,14.20
2017-09-24T00:43:56.612Z,14.20
2017-09-24T00:46:22.950Z,14.10
2017-09-24T00:48:49.244Z,14.20
2017-09-24T00:51:15.525Z,14.20
2017-09-24T00:53:41.892Z,14.20
2017-09-24T00:56:08.193Z,14.20
2017-09-24T00:58:34.509Z,14.40
2017-09-24T01:01:00.829Z,14.40
2017-09-24T01:03:27.158Z,14.30
2017-09-24T01:05:53.465Z,14.40
2017-09-24T01:08:20.519Z,14.30
2017-09-24T01:10:47.559Z,14.10
2017-09-24T01:13:14.638Z,14.30
2017-09-24T01:15:41.210Z,14.20
2017-09-24T01:18:07.574Z,14.50
2017-09-24T01:20:34.626Z,14.40
2017-09-24T01:23:00.993Z,14.40
2017-09-24T01:25:27.343Z,14.40
2017-09-24T01:27:53.672Z,14.20
2017-09-24T01:30:20.057Z,14.20
2017-09-24T01:32:46.372Z,14.30
2017-09-24T01:35:13.429Z,14.20
2017-09-24T01:37:39.751Z,14.20
2017-09-24T01:40:06.822Z,14.20
2017-09-24T01:42:33.141Z,14.10
2017-09-24T01:45:00.208Z,14.30
2017-09-24T01:47:26.529Z,14.20
2017-09-24T01:49:52.912Z,14.30
2017-09-24T01:52:19.210Z,14.40
2017-09-24T01:54:45.541Z,14.40
2017-09-24T01:57:11.852Z,14.40
2017-09-24T01:59:38.914Z,14.40
2017-09-24T02:02:05.214Z,14.30
2017-09-24T02:04:32.260Z,14.30
2017-09-24T02:06:59.286Z,14.40
2017-09-24T02:09:26.334Z,14.40
2017-09-24T02:11:53.371Z,14.30
2017-09-24T02:14:19.638Z,14.20
2017-09-24T02:16:46.667Z,14.20
2017-09-24T02:19:13.703Z,14.30
2017-09-24T02:21:40.752Z,14.40
2017-09-24T02:24:07.032Z,14.40
2017-09-24T02:26:33.334Z,14.40
2017-09-24T02:29:00.395Z,14.30
2017-09-24T02:31:26.693Z,14.30
2017-09-24T02:33:52.963Z,14.30
2017-09-24T02:36:19.256Z,14.30
2017-09-24T02:38:45.546Z,14.40
2017-09-24T02:41:11.844Z,14.40
2017-09-24T02:43:38.125Z,14.40
2017-09-24T02:46:04.429Z,14.40
2017-09-24T02:48:30.707Z,14.20
2017-09-24T02:50:57.742Z,14.10
2017-09-24T02:53:24.813Z,14.00
2017-09-24T02:55:51.833Z,14.00
2017-09-24T02:58:18.122Z,14.00
2017-09-24T03:00:45.189Z,14.00
2017-09-24T03:03:11.477Z,14.20
2017-09-24T03:05:37.774Z,14.20
2017-09-24T03:08:05.541Z,14.30
2017-09-24T03:10:32.589Z,14.30
2017-09-24T03:12:59.624Z,14.20
2017-09-24T03:15:25.908Z,14.20
2017-09-24T03:17:52.204Z,14.30
2017-09-24T03:20:19.233Z,14.20
2017-09-24T03:22:45.759Z,14.10
2017-09-24T03:25:12.041Z,14.20
2017-09-24T03:27:38.341Z,14.20
2017-09-24T03:30:05.381Z,14.10
2017-09-24T03:32:32.446Z,14.10
2017-09-24T03:34:59.722Z,14.30
2017-09-24T03:37:25.996Z,14.20
2017-09-24T03:39:53.778Z,14.00
2017-09-24T03:42:20.802Z,14.20
2017-09-24T03:44:47.109Z,14.20
2017-09-24T03:47:13.381Z,14.20
2017-09-24T03:49:39.662Z,14.30
2017-09-24T03:52:05.961Z,14.20
2017-09-24T03:54:32.262Z,14.20
2017-09-24T03:56:59.282Z,14.20
2017-09-24T03:59:26.154Z,14.20
2017-09-24T04:01:52.425Z,14.00
2017-09-24T04:04:18.706Z,14.10
2017-09-24T04:06:44.991Z,14.10
2017-09-24T04:09:11.286Z,14.30
2017-09-24T04:11:38.316Z,14.40
2017-09-24T04:14:05.475Z,14.30
2017-09-24T04:16:32.529Z,14.30
2017-09-24T04:18:59.558Z,14.40
2017-09-24T04:21:25.850Z,14.40
2017-09-24T04:23:52.120Z,14.50
2017-09-24T04:26:18.404Z,14.40
2017-09-24T04:28:44.683Z,14.40
2017-09-24T04:31:11.747Z,14.30
2017-09-24T04:33:38.769Z,14.40
2017-09-24T04:36:05.066Z,14.40
2017-09-24T04:38:31.350Z,14.50
2017-09-24T04:40:58.390Z,14.60
2017-09-24T04:43:25.425Z,14.60
2017-09-24T04:45:51.714Z,14.60
2017-09-24T04:48:18.025Z,14.60
2017-09-24T04:50:44.306Z,14.60
2017-09-24T04:53:11.377Z,14.70
2017-09-24T04:55:38.437Z,14.70
2017-09-24T04:58:05.448Z,14.70
2017-09-24T05:00:32.493Z,14.80
2017-09-24T05:02:58.783Z,14.80
2017-09-24T05:05:25.073Z,14.80
2017-09-24T05:07:52.099Z,14.90
2017-09-24T05:10:18.386Z,14.80
2017-09-24T05:12:44.670Z,14.80
2017-09-24T05:15:11.705Z,14.90
2017-09-24T05:17:38.009Z,14.90
2017-09-24T05:20:04.308Z,14.80
2017-09-24T05:22:30.590Z,14.90
2017-09-24T05:24:56.873Z,14.80
2017-09-24T05:27:23.182Z,14.80
2017-09-24T05:29:50.233Z,14.80
2017-09-24T05:32:16.518Z,14.70
2017-09-24T05:34:42.854Z,14.80
2017-09-24T05:37:09.157Z,14.80
2017-09-24T05:39:35.473Z,14.80
2017-09-24T05:42:01.764Z,14.90
2017-09-24T05:44:28.820Z,14.90
2017-09-24T05:46:55.842Z,14.80
2017-09-24T05:49:22.153Z,14.80
2017-09-24T05:51:48.477Z,14.80
2017-09-24T05:54:14.761Z,14.90
2017-09-24T05:56:41.786Z,15.00
2017-09-24T05:59:08.064Z,14.90
2017-09-24T06:01:34.466Z,14.90
2017-09-24T06:04:01.525Z,15.00
2017-09-24T06:06:27.825Z,14.90
2017-09-24T06:08:54.123Z,14.90
2017-09-24T06:11:20.429Z,14.90
2017-09-24T06:13:46.810Z,15.00
2017-09-24T06:16:13.886Z,15.00
2017-09-24T06:18:40.196Z,15.00
2017-09-24T06:21:07.233Z,15.00
2017-09-24T06:23:34.261Z,15.10
2017-09-24T06:26:00.895Z,15.10
2017-09-24T06:28:27.185Z,15.10
2017-09-24T06:30:53.489Z,15.10
2017-09-24T06:33:20.525Z,15.10
2017-09-24T06:35:46.833Z,15.10
2017-09-24T06:38:13.153Z,15.10
2017-09-24T06:40:39.493Z,15.10
2017-09-24T06:43:05.839Z,15.00
2017-09-24T06:45:33.617Z,15.00
2017-09-24T06:48:00.685Z,15.00
2017-09-24T06:50:27.858Z,15.10
2017-09-24T06:52:54.172Z,15.10
2017-09-24T06:55:20.466Z,15.10
2017-09-24T06:57:46.786Z,15.10
2017-09-24T07:00:13.810Z,15.20
2017-09-24T07:02:40.134Z,15.10
2017-09-24T07:05:06.431Z,15.20
2017-09-24T07:07:33.485Z,15.20
2017-09-24T07:09:59.816Z,15.10
2017-09-24T07:12:26.145Z,15.20
2017-09-24T07:14:52.442Z,15.30
2017-09-24T07:17:19.489Z,15.30
2017-09-24T07:19:46.637Z,15.40
2017-09-24T07:22:12.938Z,15.30
2017-09-24T07:24:39.236Z,15.30
2017-09-24T07:27:05.525Z,15.30
2017-09-24T07:29:32.209Z,15.10
2017-09-24T07:31:58.534Z,15.20
2017-09-24T07:34:24.850Z,15.30
2017-09-24T07:36:51.150Z,15.20
2017-09-24T07:39:18.917Z,15.30
2017-09-24T07:41:46.084Z,15.30
2017-09-24T07:44:13.113Z,15.20
2017-09-24T07:46:40.146Z,15.30
2017-09-24T07:49:06.441Z,15.30
2017-09-24T07:51:32.737Z,15.30
2017-09-24T07:54:00.464Z,15.50
2017-09-24T07:56:27.666Z,15.50
2017-09-24T07:58:53.950Z,15.50
2017-09-24T08:01:20.269Z,15.50
2017-09-24T08:03:46.600Z,15.40
2017-09-24T08:06:12.919Z,15.40
2017-09-24T08:08:39.258Z,15.40
2017-09-24T08:11:05.606Z,15.50
2017-09-24T08:13:31.927Z,15.50
2017-09-24T08:15:58.234Z,15.60
2017-09-24T08:18:24.534Z,15.60
2017-09-24T08:20:50.867Z,15.60
2017-09-24T08:23:17.158Z,15.50
2017-09-24T08:25:43.471Z,15.50
2017-09-24T08:28:09.761Z,15.40
2017-09-24T08:30:36.071Z,15.50
2017-09-24T08:33:03.120Z,15.60
2017-09-24T08:35:30.129Z,15.50
2017-09-24T08:37:56.433Z,15.50
2017-09-24T08:40:22.727Z,15.60
2017-09-24T08:42:49.753Z,15.50
2017-09-24T08:45:16.808Z,15.70
2017-09-24T08:47:43.855Z,15.80
2017-09-24T08:50:10.900Z,15.90
2017-09-24T08:52:37.939Z,15.90
2017-09-24T08:55:04.996Z,15.90
2017-09-24T08:57:32.934Z,15.80
2017-09-24T08:59:59.223Z,15.80
2017-09-24T09:02:25.537Z,16.00
2017-09-24T09:04:52.566Z,15.90
2017-09-24T09:07:18.877Z,15.90
2017-09-24T09:09:45.952Z,15.90
2017-09-24T09:12:13.615Z,15.70
2017-09-24T09:14:40.772Z,15.80
2017-09-24T09:17:07.812Z,15.90
2017-09-24T09:19:34.147Z,15.80
2017-09-24T09:22:00.535Z,15.90
2017-09-24T09:24:26.865Z,15.90
2017-09-24T09:26:54.721Z,16.00
2017-09-24T09:29:21.073Z,16.00
2017-09-24T09:31:47.529Z,15.90
2017-09-24T09:34:27.203Z,16.00
2017-09-24T09:36:53.509Z,16.00
2017-09-24T09:39:21.013Z,16.00
2017-09-24T09:41:47.366Z,15.90
2017-09-24T09:44:27.691Z,16.10
2017-09-24T09:49:50.565Z,16.30
2017-09-24T09:52:16.868Z,16.50
2017-09-24T09:54:43.194Z,16.70
2017-09-24T09:57:09.497Z,16.80
2017-09-24T09:59:35.841Z,16.80
2017-09-24T10:02:03.516Z,16.90
2017-09-24T10:04:29.858Z,16.80
2017-09-24T10:07:08.492Z,16.90
2017-09-24T10:09:47.348Z,17.10
2017-09-24T10:12:13.716Z,17.10
2017-09-24T10:14:40.097Z,17.10
2017-09-24T10:17:06.454Z,17.20
2017-09-24T10:19:33.566Z,17.20
2017-09-24T10:21:59.893Z,17.20
2017-09-24T10:24:26.221Z,17.40
2017-09-24T10:26:52.662Z,17.50
2017-09-24T10:29:29.647Z,17.60
2017-09-24T10:32:04.340Z,17.60
2017-09-24T10:34:31.470Z,17.70
2017-09-24T10:36:57.819Z,17.70
2017-09-24T10:39:24.110Z,17.90
2017-09-24T10:41:50.455Z,17.90
2017-09-24T10:44:16.797Z,17.90
2017-09-24T10:46:43.840Z,17.60
2017-09-24T10:49:10.173Z,17.50
2017-09-24T10:51:36.559Z,17.60
2017-09-24T10:54:03.039Z,17.70
2017-09-24T10:56:29.370Z,17.50
2017-09-24T10:58:55.749Z,17.70
2017-09-24T11:01:22.080Z,17.90
2017-09-24T11:03:48.518Z,17.90
2017-09-24T11:06:16.325Z,18.20
2017-09-24T11:08:43.403Z,18.20
2017-09-24T11:11:09.735Z,18.20
2017-09-24T11:13:36.109Z,18.20
2017-09-24T11:16:03.211Z,17.90
2017-09-24T11:18:29.605Z,17.90
2017-09-24T11:20:56.925Z,18.10
2017-09-24T11:23:23.337Z,18.00
2017-09-24T11:25:49.853Z,18.20
2017-09-24T11:28:16.234Z,18.20
2017-09-24T11:30:42.612Z,18.00
2017-09-24T11:33:09.003Z,18.00
2017-09-24T11:35:35.494Z,18.10
2017-09-24T11:38:02.002Z,18.10
2017-09-24T11:40:28.608Z,18.20
2017-09-24T11:42:56.161Z,18.40
2017-09-24T11:45:23.408Z,18.40
2017-09-24T11:47:49.706Z,18.40
2017-09-24T11:50:16.176Z,18.30
2017-09-24T11:52:42.573Z,18.40
2017-09-24T11:55:08.902Z,18.50
2017-09-24T11:57:35.209Z,18.40
2017-09-24T12:00:02.696Z,18.40
2017-09-24T12:02:29.022Z,18.50
2017-09-24T12:04:55.386Z,18.60
2017-09-24T12:07:23.167Z,18.90
2017-09-24T12:09:49.491Z,18.90
2017-09-24T12:12:17.504Z,19.30
2017-09-24T12:14:44.641Z,19.30
2017-09-24T12:17:10.953Z,19.30
2017-09-24T12:19:38.002Z,19.30
2017-09-24T12:22:05.102Z,19.50
2017-09-24T12:24:32.263Z,19.50
2017-09-24T12:26:58.908Z,19.60
2017-09-24T12:29:25.218Z,19.80
2017-09-24T12:31:51.589Z,19.80
2017-09-24T12:34:17.950Z,19.60
2017-09-24T12:36:44.262Z,19.40
2017-09-24T12:39:11.341Z,19.30
2017-09-24T12:41:37.987Z,19.30
2017-09-24T12:44:04.295Z,19.50
2017-09-24T12:46:30.895Z,19.60
2017-09-24T12:48:58.019Z,20.00
2017-09-24T12:51:25.108Z,20.10
2017-09-24T12:53:52.228Z,20.00
2017-09-24T12:56:18.545Z,20.20
2017-09-24T12:58:44.940Z,20.50
2017-09-24T13:01:11.273Z,20.80
2017-09-24T13:03:37.609Z,21.00
2017-09-24T13:06:03.943Z,20.90
2017-09-24T13:08:30.392Z,21.30
2017-09-24T13:10:56.741Z,21.50
2017-09-24T13:13:23.085Z,21.60
2017-09-24T13:15:50.868Z,21.50
2017-09-24T13:18:17.943Z,21.40
2017-09-24T13:20:44.277Z,21.40
2017-09-24T13:23:10.634Z,21.40
2017-09-24T13:25:36.951Z,21.50
2017-09-24T13:28:03.270Z,21.30
2017-09-24T13:30:29.569Z,20.90
2017-09-24T13:32:56.648Z,20.40
2017-09-24T13:35:22.951Z,20.40
2017-09-24T13:37:50.023Z,20.20
2017-09-24T13:40:16.371Z,20.20
2017-09-24T13:42:42.702Z,20.80
2017-09-24T13:45:09.017Z,21.30
2017-09-24T13:47:35.289Z,21.80
2017-09-24T13:50:01.613Z,22.20
2017-09-24T13:52:27.933Z,22.50
2017-09-24T13:54:54.262Z,22.90
2017-09-24T13:57:20.601Z,22.70
2017-09-24T13:59:47.041Z,22.60
2017-09-24T14:02:14.870Z,22.10
2017-09-24T14:04:41.227Z,22.10
2017-09-24T14:07:07.642Z,22.50
2017-09-24T14:09:33.949Z,22.90
2017-09-24T14:12:00.268Z,23.10
2017-09-24T14:14:26.627Z,23.40
2017-09-24T14:16:52.934Z,24.00
2017-09-24T14:19:19.223Z,23.80
2017-09-24T14:21:45.609Z,24.40
2017-09-24T14:24:11.982Z,24.70
2017-09-24T14:26:38.352Z,25.00
2017-09-24T14:29:04.704Z,25.50
2017-09-24T14:31:31.010Z,25.80
2017-09-24T14:33:58.219Z,26.80
2017-09-24T14:36:24.534Z,26.70
2017-09-24T14:38:50.876Z,26.90
2017-09-24T14:41:17.206Z,26.90
2017-09-24T14:43:43.511Z,27.00
2017-09-24T14:46:09.818Z,27.30
2017-09-24T14:48:36.882Z,27.50
2017-09-24T14:51:03.231Z,27.50
2017-09-24T14:53:29.548Z,27.70
2017-09-24T14:55:55.868Z,27.90
2017-09-24T14:58:22.193Z,27.80
2017-09-24T15:00:48.502Z,26.80
2017-09-24T15:03:15.563Z,24.40
2017-09-24T15:05:42.611Z,23.60
2017-09-24T15:08:08.950Z,23.50
2017-09-24T15:10:35.337Z,22.90
2017-09-24T15:13:01.661Z,22.70
2017-09-24T15:15:28.002Z,22.40
2017-09-24T15:17:54.329Z,22.00
2017-09-24T15:20:21.207Z,21.70
2017-09-24T15:22:47.560Z,21.60
2017-09-24T15:25:13.893Z,21.60
2017-09-24T15:27:40.246Z,22.00
2017-09-24T15:30:06.686Z,22.70
2017-09-24T15:32:33.189Z,23.40
2017-09-24T15:35:00.397Z,24.50
2017-09-24T15:37:26.822Z,24.50
2017-09-24T15:39:53.254Z,24.60
2017-09-24T15:42:20.361Z,25.00
2017-09-24T15:44:46.726Z,24.90
2017-09-24T15:47:13.060Z,25.20
2017-09-24T15:49:39.390Z,25.30
2017-09-24T15:52:05.735Z,25.20
2017-09-24T15:54:32.187Z,25.20
2017-09-24T15:56:58.803Z,25.20
2017-09-24T15:59:25.258Z,24.90
2017-09-24T16:04:25.398Z,24.50
2017-09-24T16:06:51.830Z,24.40
2017-09-24T16:09:18.208Z,24.20
2017-09-24T16:11:44.596Z,24.00
2017-09-24T16:14:10.948Z,23.80
2017-09-24T16:16:37.283Z,23.70
2017-09-24T16:19:03.662Z,23.50
2017-09-24T16:21:30.008Z,23.20
2017-09-24T16:23:57.124Z,22.90
2017-09-24T16:26:24.242Z,22.50
2017-09-24T16:28:50.545Z,22.40
2017-09-24T16:31:17.590Z,22.00
2017-09-24T16:33:44.701Z,22.00
2017-09-24T16:36:11.261Z,22.00
2017-09-24T16:38:38.358Z,21.00
2017-09-24T16:41:04.726Z,21.00
2017-09-24T16:43:31.238Z,21.10
2017-09-24T16:45:57.585Z,20.70
2017-09-24T16:48:24.643Z,20.40
2017-09-24T16:50:51.743Z,20.30
2017-09-24T16:53:18.123Z,20.30
2017-09-24T16:55:44.465Z,20.30
2017-09-24T16:58:10.766Z,20.20
2017-09-24T17:00:37.157Z,20.10
2017-09-24T17:03:03.533Z,20.00
2017-09-24T17:05:30.851Z,19.80
2017-09-24T17:07:58.187Z,19.60
2017-09-24T17:10:24.631Z,19.70
2017-09-24T17:12:51.291Z,19.50
2017-09-24T17:15:17.683Z,19.30
2017-09-24T17:17:44.030Z,19.10
2017-09-24T17:20:10.363Z,19.10
2017-09-24T17:22:36.638Z,19.00
2017-09-24T17:25:02.961Z,18.80
2017-09-24T17:27:30.409Z,18.60
2017-09-24T17:29:57.595Z,18.40
2017-09-24T17:32:24.087Z,18.30
2017-09-24T17:34:51.883Z,18.10
2017-09-24T17:37:18.222Z,18.10
2017-09-24T17:39:45.266Z,18.10
2017-09-24T17:42:11.903Z,18.00
2017-09-24T17:44:38.254Z,18.00
2017-09-24T17:47:04.582Z,18.00
2017-09-24T17:49:30.873Z,18.20
2017-09-24T17:51:57.286Z,18.20
2017-09-24T17:54:23.576Z,18.10
2017-09-24T17:56:49.882Z,18.10
2017-09-24T17:59:16.210Z,18.10
2017-09-24T18:01:45.470Z,17.80
2017-09-24T18:04:12.421Z,18.10
2017-09-24T18:06:38.880Z,17.90
2017-09-24T18:09:05.932Z,17.70
2017-09-24T18:11:32.240Z,17.70
2017-09-24T18:13:58.530Z,17.90
2017-09-24T18:16:25.649Z,17.90
2017-09-24T18:18:52.700Z,18.00
2017-09-24T18:21:19.778Z,17.70
2017-09-24T18:23:46.060Z,17.70
2017-09-24T18:26:12.383Z,17.60
2017-09-24T18:28:39.525Z,17.80
2017-09-24T18:31:05.785Z,17.70
2017-09-24T18:33:32.830Z,17.60
2017-09-24T18:35:59.167Z,17.60
2017-09-24T18:38:25.481Z,17.60
2017-09-24T18:40:52.515Z,17.70
2017-09-24T18:43:18.861Z,17.70
2017-09-24T18:45:45.158Z,17.60
2017-09-24T18:48:12.468Z,17.60
2017-09-24T18:50:38.765Z,17.60
2017-09-24T18:53:05.851Z,17.60
2017-09-24T18:55:32.910Z,17.60
2017-09-24T18:57:59.254Z,17.60
2017-09-24T19:00:25.578Z,17.70
2017-09-24T19:02:51.917Z,17.60
2017-09-24T19:05:18.228Z,17.70
2017-09-24T19:07:44.519Z,17.50
2017-09-24T19:10:11.567Z,17.50
2017-09-24T19:12:38.627Z,17.50
2017-09-24T19:15:06.090Z,17.70
2017-09-24T19:17:32.904Z,17.60
2017-09-24T19:19:59.740Z,17.70
2017-09-24T19:22:26.616Z,17.60
2017-09-24T19:24:53.405Z,17.80
2017-09-24T19:27:20.245Z,17.70
2017-09-24T19:29:46.713Z,17.70
2017-09-24T19:32:13.541Z,17.70
2017-09-24T19:34:41.272Z,17.60
2017-09-24T19:37:08.842Z,17.60
2017-09-24T19:39:35.608Z,17.60
2017-09-24T19:42:02.117Z,17.50
2017-09-24T19:44:29.324Z,17.50
2017-09-24T19:46:55.992Z,17.50
2017-09-24T19:49:22.366Z,17.60
2017-09-24T19:51:50.016Z,17.40
2017-09-24T19:54:16.736Z,17.40
2017-09-24T19:56:43.175Z,17.50
2017-09-24T19:59:09.456Z,17.60
2017-09-24T20:01:35.773Z,17.40
2017-09-24T20:04:02.816Z,17.30
2017-09-24T20:06:29.098Z,17.20
2017-09-24T20:08:56.685Z,17.30
2017-09-24T20:11:23.072Z,17.40
2017-09-24T20:13:49.404Z,17.50
2017-09-24T20:16:15.726Z,17.40
2017-09-24T20:18:42.056Z,17.40
2017-09-24T20:21:08.851Z,17.40
2017-09-24T20:23:36.638Z,17.40
2017-09-24T20:26:03.670Z,17.30
2017-09-24T20:28:31.437Z,17.30
2017-09-24T20:30:57.755Z,17.20
2017-09-24T20:33:24.046Z,17.40
2017-09-24T20:35:50.325Z,17.30
2017-09-24T20:38:19.472Z,17.30
2017-09-24T20:40:46.793Z,17.30
2017-09-24T20:43:15.036Z,17.40
2017-09-24T20:45:41.376Z,17.40
2017-09-24T20:48:07.671Z,17.40
2017-09-24T20:50:33.949Z,17.40
2017-09-24T20:53:00.260Z,17.30
2017-09-24T20:55:26.537Z,17.20
2017-09-24T20:57:53.700Z,17.20
2017-09-24T21:00:20.278Z,17.20
2017-09-24T21:02:46.852Z,17.10
2017-09-24T21:05:13.302Z,17.20
2017-09-24T21:07:39.697Z,17.20
2017-09-24T21:10:06.297Z,17.10
2017-09-24T21:12:33.008Z,17.10
2017-09-24T21:14:59.535Z,17.20
2017-09-24T21:17:25.919Z,17.30
2017-09-24T21:19:52.336Z,17.20
2017-09-24T21:22:18.674Z,17.40
2017-09-24T21:24:45.761Z,17.10
2017-09-24T21:27:12.294Z,17.10
2017-09-24T21:29:38.757Z,17.30
2017-09-24T21:32:05.050Z,17.10
2017-09-24T21:34:32.097Z,16.80
2017-09-24T21:36:59.132Z,17.00
2017-09-24T21:39:26.602Z,16.90
2017-09-24T21:41:53.073Z,16.90
2017-09-24T21:44:19.357Z,16.90
2017-09-24T21:46:47.213Z,17.00
2017-09-24T21:49:13.593Z,17.00
2017-09-24T21:51:40.157Z,17.10
2017-09-24T21:54:08.179Z,16.90
2017-09-24T21:56:34.492Z,16.90
2017-09-24T21:59:01.506Z,16.90
2017-09-24T22:01:27.805Z,16.80
2017-09-24T22:03:54.135Z,16.90
2017-09-24T22:06:20.518Z,16.80
2017-09-24T22:08:47.577Z,16.80
2017-09-24T22:11:14.602Z,16.90
2017-09-24T22:13:40.896Z,16.90
2017-09-24T22:16:07.492Z,16.80
2017-09-24T22:18:34.514Z,16.80
2017-09-24T22:21:01.049Z,16.70
2017-09-24T22:23:28.084Z,16.90
2017-09-24T22:25:54.689Z,16.80
2017-09-24T22:28:21.818Z,16.70
2017-09-24T22:30:48.327Z,16.70
2017-09-24T22:33:15.497Z,16.70
2017-09-24T22:35:42.502Z,16.70
2017-09-24T22:38:08.809Z,16.70
2017-09-24T22:40:35.103Z,16.80
2017-09-24T22:43:02.135Z,16.70
2017-09-24T22:45:29.176Z,16.60
2017-09-24T22:47:55.796Z,16.60
2017-09-24T22:50:22.990Z,16.60
2017-09-24T22:52:49.285Z,16.50
2017-09-24T22:55:17.074Z,16.80
2017-09-24T22:57:44.090Z,16.80
2017-09-24T23:00:10.377Z,16.80
2017-09-24T23:02:36.711Z,16.80
2017-09-24T23:05:03.001Z,16.70
2017-09-24T23:07:30.033Z,16.60
2017-09-24T23:09:56.318Z,16.50
2017-09-24T23:12:22.622Z,16.60
2017-09-24T23:14:49.705Z,16.70
2017-09-24T23:17:15.996Z,16.70
2017-09-24T23:19:43.045Z,16.50
2017-09-24T23:22:10.075Z,16.60
2017-09-24T23:24:36.403Z,16.50
2017-09-24T23:27:02.706Z,16.60
2017-09-24T23:29:28.982Z,16.60
2017-09-24T23:31:55.291Z,16.60
2017-09-24T23:34:23.068Z,16.40
2017-09-24T23:36:50.099Z,16.40
2017-09-24T23:39:16.393Z,16.40
2017-09-24T23:41:42.683Z,16.40
2017-09-24T23:44:08.994Z,16.30
2017-09-24T23:46:36.024Z,16.50
2017-09-24T23:49:02.327Z,16.50
2017-09-24T23:51:28.627Z,16.50
2017-09-24T23:53:54.907Z,16.50
2017-09-24T23:56:21.201Z,16.60
2017-09-24T23:58:47.487Z,16.50
